Terminal Aerodrome Forecast
Issued by NWS Atlanta, GA

Home | Current Version | Previous Version | Text Only | Print | Product List | Glossary On
Versions: 1 2 3 4 5 6 7 8 9 10 11 12 13 14 15 16 17 18 19
238
FTUS42 KFFC 251018 AAB
TAFCSG
TAF AMD
KCSG 251018Z 2510/2606 14005KT P6SM FEW250
     FM251300 16010KT P6SM BKN045
     FM252300 17006KT P6SM VCSH BKN035 PROB30 2603/2606 4SM TSRA
      BKN025CB=

USA.gov is the U.S. government's official web portal to all federal, state and local government web resources and services.